Venez Explorer Les Airs Avec Nous!

Que ce soit pour un vol de découverte, pour apprendre l’art du pilotage ou pour voyager, venez nous rejoindre.

Information en heures locale pour LFDL
23 mai 2019

Metar
LFBI 231030Z AUTO VRB03KT 9999 NCD 22/07 Q1018 TEMPO BKN060TCU

Lever du soleil aéronautique : 03:46

Lever du soleil : 04:16

Coucher du soleil :19:36

Coucher du soleil aéronautique :20:06

Contacts

Téléphone

Club:
07-66-57-42-61

Michel Richez (président):
06-52-73-09-01

Adresse

Aéroclub de Loudun
Bellevue
86200 Loudun

Vous vous trouvez sur un site temporaire.

Un site définitif sera disponible rapidement, en attendant vous pouvez nous contacter via les informations ci-dessus

Fermer le menu